createdAt,value
2023-03-05T00:02:51.857Z,96070.30
2023-03-05T00:06:42.304Z,96054.11
2023-03-05T00:10:38.406Z,96075.42
2023-03-05T00:14:01.586Z,96053.23
2023-03-05T00:17:54.084Z,96066.03
2023-03-05T00:21:34.468Z,96060.08
2023-03-05T00:25:14.360Z,96045.53
2023-03-05T00:29:21.404Z,96060.05
2023-03-05T00:33:19.758Z,96054.05
2023-03-05T00:36:47.131Z,96075.40
2023-03-05T00:40:39.130Z,96069.41
2023-03-05T00:44:01.627Z,96062.61
2023-03-05T00:47:56.340Z,96055.77
2023-03-05T00:51:27.370Z,96053.21
2023-03-05T00:58:14.715Z,96054.03
2023-03-05T01:01:26.879Z,96058.30
2023-03-05T01:05:31.288Z,96090.68
2023-03-05T01:13:26.758Z,96062.52
2023-03-05T01:17:21.936Z,96059.08
2023-03-05T01:20:43.151Z,96050.53
2023-03-05T01:24:05.293Z,96080.34
2023-03-05T01:27:41.415Z,96064.16
2023-03-05T01:31:20.616Z,96097.34
2023-03-05T01:35:14.594Z,96057.29
2023-03-05T01:39:16.619Z,96071.78
2023-03-05T01:46:43.941Z,96060.63
2023-03-05T01:50:03.320Z,96064.82
2023-03-05T01:52:52.598Z,96069.05
2023-03-05T01:55:27.818Z,96069.05
2023-03-05T01:58:03.997Z,96066.50
2023-03-05T02:00:40.556Z,96054.59
2023-03-05T02:03:15.791Z,96052.88
2023-03-05T02:05:49.078Z,96052.04
2023-03-05T02:08:24.036Z,96054.56
2023-03-05T02:10:58.218Z,96069.89
2023-03-05T02:13:35.828Z,96056.27
2023-03-05T02:16:11.086Z,96052.92
2023-03-05T02:18:44.577Z,96052.05
2023-03-05T02:21:24.048Z,96036.72
2023-03-05T02:23:57.494Z,96052.88
2023-03-05T02:26:31.081Z,96055.44
2023-03-05T02:29:08.122Z,96044.38
2023-03-05T02:31:41.518Z,96052.05
2023-03-05T02:34:15.042Z,96050.38
2023-03-05T02:36:51.004Z,96053.77
2023-03-05T02:39:25.284Z,96042.70
2023-03-05T02:41:59.002Z,96041.86
2023-03-05T02:44:32.570Z,96046.98
2023-03-05T02:47:06.964Z,96043.55
2023-03-05T02:49:40.568Z,96040.14
2023-03-05T02:52:13.916Z,96051.21
2023-03-05T02:54:47.387Z,96068.27
2023-03-05T02:57:21.111Z,96030.80
2023-03-05T02:59:54.836Z,96044.42
2023-03-05T03:02:28.189Z,96039.31
2023-03-05T03:05:01.572Z,96049.53
2023-03-05T03:07:36.705Z,96039.31
2023-03-05T03:10:12.733Z,96044.38
2023-03-05T03:12:47.265Z,96040.98
2023-03-05T03:15:21.115Z,96036.75
2023-03-05T03:17:55.597Z,96030.77
2023-03-05T03:20:29.270Z,96029.05
2023-03-05T03:23:02.738Z,96037.59
2023-03-05T03:25:36.873Z,96022.27
2023-03-05T03:28:10.378Z,96022.23
2023-03-05T03:30:43.621Z,96037.59
2023-03-05T03:33:18.327Z,96052.93
2023-03-05T03:35:51.675Z,96026.50
2023-03-05T03:38:25.182Z,96040.95
2023-03-05T03:40:59.416Z,96030.77
2023-03-05T03:43:32.791Z,96035.04
2023-03-05T03:46:08.372Z,96035.88
2023-03-05T03:48:41.786Z,96050.33
2023-03-05T03:51:14.942Z,96037.55
2023-03-05T03:53:48.660Z,96023.94
2023-03-05T03:56:22.119Z,96038.44
2023-03-05T03:58:55.728Z,96024.81
2023-03-05T04:01:29.088Z,96029.05
2023-03-05T04:04:02.657Z,96033.32
2023-03-05T04:06:36.698Z,96042.70
2023-03-05T04:09:10.566Z,96026.50
2023-03-05T04:11:43.841Z,96029.09
2023-03-05T04:14:17.443Z,96013.76
2023-03-05T04:16:50.942Z,96024.81
2023-03-05T04:19:24.837Z,96048.66
2023-03-05T04:21:58.193Z,96044.42
2023-03-05T04:24:31.866Z,96030.77
2023-03-05T04:27:05.055Z,96050.38
2023-03-05T04:29:38.843Z,96048.66
2023-03-05T04:32:12.504Z,96052.93
2023-03-05T04:34:45.608Z,96040.99
2023-03-05T04:37:18.981Z,96042.70
2023-03-05T04:39:52.225Z,96041.03
2023-03-05T04:42:25.678Z,96033.36
2023-03-05T04:44:58.891Z,96053.81
2023-03-05T04:47:34.130Z,96036.75
2023-03-05T04:50:09.233Z,96039.35
2023-03-05T04:52:44.406Z,96049.58
2023-03-05T04:55:19.066Z,96044.47
2023-03-05T04:57:52.102Z,96050.45
2023-03-05T05:00:25.816Z,96053.02
2023-03-05T05:02:59.153Z,96053.89
2023-03-05T05:05:32.676Z,96044.50
2023-03-05T05:08:06.649Z,96041.95
2023-03-05T05:10:41.589Z,96045.38
2023-03-05T05:13:14.704Z,96053.05
2023-03-05T05:15:47.753Z,96052.17
2023-03-05T05:18:21.170Z,96052.17
2023-03-05T05:20:54.593Z,96059.84
2023-03-05T05:23:27.950Z,96053.89
2023-03-05T05:26:03.194Z,96056.45
2023-03-05T05:28:38.491Z,96059.84
2023-03-05T05:31:14.118Z,96050.50
2023-03-05T05:33:49.766Z,96058.20
2023-03-05T05:36:23.153Z,96059.92
2023-03-05T05:38:56.784Z,96061.59
2023-03-05T05:41:29.948Z,96064.16
2023-03-05T05:44:03.336Z,96063.31
2023-03-05T05:46:36.621Z,96060.77
2023-03-05T05:49:09.753Z,96066.75
2023-03-05T05:51:42.846Z,96076.11
2023-03-05T05:54:17.157Z,96061.64
2023-03-05T05:56:50.635Z,96081.25
2023-03-05T05:59:24.153Z,96082.09
2023-03-05T06:01:57.644Z,96078.70
2023-03-05T06:04:30.829Z,96069.31
2023-03-05T06:07:04.244Z,96088.92
2023-03-05T06:09:38.994Z,96080.38
2023-03-05T06:12:12.276Z,96085.48
2023-03-05T06:14:45.445Z,96088.92
2023-03-05T06:17:28.628Z,96100.00
2023-03-05T06:19:56.735Z,96088.05
2023-03-05T06:22:30.250Z,96081.26
2023-03-05T06:25:03.784Z,96083.84
2023-03-05T06:27:38.762Z,96083.88
2023-03-05T06:30:14.625Z,96089.84
2023-03-05T06:32:48.287Z,96090.72
2023-03-05T06:35:42.656Z,96095.83
2023-03-05T06:38:18.439Z,96089.88
2023-03-05T06:40:51.952Z,96100.98
2023-03-05T06:43:25.067Z,96100.14
2023-03-05T06:46:09.494Z,96108.69
2023-03-05T06:48:43.866Z,96107.00
2023-03-05T06:51:18.504Z,96106.16
2023-03-05T06:53:52.403Z,96102.75
2023-03-05T06:56:26.120Z,96112.98
2023-03-05T06:58:59.426Z,96111.30
2023-03-05T07:01:33.220Z,96115.55
2023-03-05T07:04:07.286Z,96118.10
2023-03-05T07:06:42.282Z,96119.84
2023-03-05T07:09:17.483Z,96123.27
2023-03-05T07:11:50.988Z,96120.73
2023-03-05T07:14:24.150Z,96121.63
2023-03-05T07:16:57.569Z,96129.30
2023-03-05T07:19:30.750Z,96135.29
2023-03-05T07:22:04.243Z,96142.15
2023-03-05T07:24:37.715Z,96141.31
2023-03-05T07:27:11.157Z,96154.13
2023-03-05T07:29:44.898Z,96149.00
2023-03-05T07:32:18.043Z,96157.55
2023-03-05T07:34:53.794Z,96158.41
2023-03-05T07:37:27.081Z,96162.70
2023-03-05T07:40:00.470Z,96166.94
2023-03-05T07:42:35.145Z,96172.08
2023-03-05T07:45:11.900Z,96179.77
2023-03-05T07:47:45.391Z,96179.78
2023-03-05T07:50:19.036Z,96183.21
2023-03-05T07:52:53.070Z,96184.91
2023-03-05T07:55:26.467Z,96198.58
2023-03-05T07:57:59.543Z,96194.27
2023-03-05T08:00:33.120Z,96206.23
2023-03-05T08:03:06.839Z,96211.38
2023-03-05T08:05:43.347Z,96213.03
2023-03-05T08:08:16.912Z,96215.59
2023-03-05T08:10:50.316Z,96217.23
2023-03-05T08:13:23.596Z,96225.73
2023-03-05T08:15:56.909Z,96228.22
2023-03-05T08:18:30.175Z,96225.52
2023-03-05T08:21:03.777Z,96233.03
2023-03-05T08:23:37.030Z,96233.74
2023-03-05T08:26:17.182Z,96235.41
2023-03-05T08:28:50.402Z,96246.49
2023-03-05T08:31:26.617Z,96253.26
2023-03-05T08:34:02.119Z,96259.91
2023-03-05T08:36:35.597Z,96264.14
2023-03-05T08:39:10.071Z,96264.30
2023-03-05T08:41:43.384Z,96264.56
2023-03-05T08:44:16.752Z,96265.61
2023-03-05T08:46:50.212Z,96276.89
2023-03-05T08:49:23.647Z,96275.25
2023-03-05T08:51:56.668Z,96280.43
2023-03-05T08:54:30.051Z,96294.16
2023-03-05T08:57:03.339Z,96298.46
2023-03-05T08:59:36.519Z,96300.14
2023-03-05T09:02:11.650Z,96300.93
2023-03-05T09:04:45.046Z,96311.19
2023-03-05T09:07:18.304Z,96310.34
2023-03-05T09:09:51.839Z,96319.76
2023-03-05T09:12:24.969Z,96318.89
2023-03-05T09:14:58.190Z,96321.44
2023-03-05T09:17:31.658Z,96319.71
2023-03-05T09:20:08.475Z,96327.39
2023-03-05T09:22:42.060Z,96323.14
2023-03-05T09:25:15.640Z,96341.22
2023-03-05T09:27:48.899Z,96336.09
2023-03-05T09:30:23.570Z,96355.79
2023-03-05T09:32:56.752Z,96348.89
2023-03-05T09:35:30.968Z,96358.18
2023-03-05T09:38:04.822Z,96353.75
2023-03-05T09:40:45.378Z,96338.27
2023-03-05T09:43:26.455Z,96365.84
2023-03-05T09:46:16.196Z,96365.02
2023-03-05T09:48:58.052Z,96368.51
2023-03-05T09:51:38.392Z,96382.19
2023-03-05T09:54:15.459Z,96380.40
2023-03-05T09:56:52.005Z,96391.56
2023-03-05T09:59:29.899Z,96400.13
2023-03-05T10:02:06.606Z,96396.59
2023-03-05T10:04:46.315Z,96406.89
2023-03-05T10:07:23.220Z,96412.04
2023-03-05T10:10:01.358Z,96412.02
2023-03-05T10:12:43.052Z,96414.62
2023-03-05T10:15:19.614Z,96425.06
2023-03-05T10:18:11.010Z,96425.98
2023-03-05T10:20:59.218Z,96430.29
2023-03-05T10:23:37.646Z,96433.73
2023-03-05T10:26:17.561Z,96441.48
2023-03-05T10:28:56.525Z,96444.91
2023-03-05T10:32:04.275Z,96450.06
2023-03-05T10:35:00.781Z,96461.17
2023-03-05T10:37:57.490Z,96461.20
2023-03-05T10:40:34.118Z,96479.22
2023-03-05T10:43:14.423Z,96480.94
2023-03-05T10:45:50.233Z,96485.22
2023-03-05T10:48:29.630Z,96494.63
2023-03-05T10:51:07.093Z,96489.47
2023-03-05T10:53:44.903Z,96504.84
2023-03-05T10:56:20.610Z,96502.27
2023-03-05T10:58:54.468Z,96508.28
2023-03-05T11:01:29.745Z,96510.00
2023-03-05T11:04:04.968Z,96515.16
2023-03-05T11:06:41.297Z,96521.16
2023-03-05T11:09:28.773Z,96522.89
2023-03-05T11:12:18.324Z,96528.02
2023-03-05T11:15:05.721Z,96523.76
2023-03-05T11:17:42.763Z,96532.34
2023-03-05T11:20:35.502Z,96546.91
2023-03-05T11:23:14.670Z,96538.34
2023-03-05T11:25:57.969Z,96554.59
2023-03-05T11:28:34.347Z,96552.89
2023-03-05T11:31:13.237Z,96556.32
2023-03-05T11:33:57.868Z,96555.45
2023-03-05T11:36:33.526Z,96563.19
2023-03-05T11:39:17.213Z,96572.59
2023-03-05T11:41:53.202Z,96582.89
2023-03-05T11:44:29.051Z,96593.19
2023-03-05T11:47:05.929Z,96588.89
2023-03-05T11:49:42.798Z,96592.23
2023-03-05T11:52:19.240Z,96607.57
2023-03-05T11:55:00.559Z,96605.78
2023-03-05T11:57:38.262Z,96613.44
2023-03-05T12:00:18.350Z,96627.95
2023-03-05T12:02:56.141Z,96631.45
2023-03-05T12:05:31.366Z,96628.95
2023-03-05T12:08:06.272Z,96639.23
2023-03-05T12:10:39.589Z,96637.54
2023-03-05T12:16:13.853Z,96646.97
2023-03-05T12:19:01.750Z,96657.20
2023-03-05T12:21:38.225Z,96660.61
2023-03-05T12:24:40.425Z,96669.20
2023-03-05T12:27:17.168Z,96672.57
2023-03-05T12:29:54.454Z,96673.45
2023-03-05T12:32:54.862Z,96673.45
2023-03-05T12:35:36.485Z,96681.11
2023-03-05T12:38:27.207Z,96685.40
2023-03-05T12:41:35.827Z,96693.95
2023-03-05T12:44:22.444Z,96699.12
2023-03-05T12:47:21.844Z,96704.30
2023-03-05T12:52:39.141Z,96712.93
2023-03-05T12:55:25.906Z,96710.27
2023-03-05T12:58:04.255Z,96717.94
2023-03-05T13:00:41.037Z,96722.17
2023-03-05T13:03:18.012Z,96729.83
2023-03-05T13:05:55.359Z,96732.41
2023-03-05T13:08:30.690Z,96735.86
2023-03-05T13:11:08.532Z,96736.75
2023-03-05T13:13:44.871Z,96742.77
2023-03-05T13:16:22.810Z,96747.91
2023-03-05T13:18:58.111Z,96740.25
2023-03-05T13:21:33.154Z,96741.88
2023-03-05T13:24:08.773Z,96749.48
2023-03-05T13:26:43.187Z,96752.81
2023-03-05T13:29:19.026Z,96757.89
2023-03-05T13:31:55.107Z,96763.03
2023-03-05T13:34:44.633Z,96770.00
2023-03-05T13:37:07.551Z,96768.33
2023-03-05T13:39:43.683Z,96773.41
2023-03-05T13:42:20.764Z,96775.06
2023-03-05T13:45:02.308Z,96771.60
2023-03-05T13:47:37.180Z,96783.47
2023-03-05T13:50:24.865Z,96788.52
2023-03-05T13:52:59.868Z,96787.63
2023-03-05T13:55:33.161Z,96796.21
2023-03-05T13:58:06.379Z,96798.66
2023-03-05T14:00:40.178Z,96798.70
2023-03-05T14:03:18.139Z,96807.24
2023-03-05T14:05:51.676Z,96811.45
2023-03-05T14:08:27.514Z,96807.97
2023-03-05T14:11:03.497Z,96806.17
2023-03-05T14:13:36.862Z,96817.18
2023-03-05T14:16:11.578Z,96822.28
2023-03-05T14:18:55.982Z,96829.11
2023-03-05T14:21:45.883Z,96829.04
2023-03-05T14:24:26.614Z,96835.81
2023-03-05T14:27:03.407Z,96839.19
2023-03-05T14:29:37.885Z,96848.47
2023-03-05T14:32:18.664Z,96847.59
2023-03-05T14:34:54.810Z,96854.41
2023-03-05T14:37:30.935Z,96851.94
2023-03-05T14:40:07.428Z,96851.94
2023-03-05T14:42:52.159Z,96856.11
2023-03-05T14:45:28.424Z,96847.52
2023-03-05T14:48:03.603Z,96856.00
2023-03-05T14:50:38.592Z,96859.36
2023-03-05T14:53:16.073Z,96865.26
2023-03-05T14:55:50.465Z,96861.00
2023-03-05T14:58:26.352Z,96866.06
2023-03-05T15:01:00.267Z,96871.13
2023-03-05T15:03:33.625Z,96870.23
2023-03-05T15:06:09.443Z,96879.64
2023-03-05T15:08:42.762Z,96886.48
2023-03-05T15:11:16.205Z,96888.15
2023-03-05T15:13:50.168Z,96883.03
2023-03-05T15:16:24.094Z,96892.36
2023-03-05T15:18:57.570Z,96893.98
2023-03-05T15:21:30.438Z,96899.92
2023-03-05T15:24:03.776Z,96902.47
2023-03-05T15:26:37.492Z,96911.80
2023-03-05T15:29:10.861Z,96919.45
2023-03-05T15:31:44.058Z,96923.73
2023-03-05T15:34:17.305Z,96925.42
2023-03-05T15:36:50.365Z,96924.59
2023-03-05T15:39:24.811Z,96926.28
2023-03-05T15:41:58.600Z,96928.87
2023-03-05T15:44:31.669Z,96931.42
2023-03-05T15:47:04.984Z,96934.00
2023-03-05T15:49:38.184Z,96932.34
2023-03-05T15:52:11.638Z,96936.66
2023-03-05T15:54:44.859Z,96942.63
2023-03-05T15:57:18.340Z,96939.16
2023-03-05T15:59:51.633Z,96935.73
2023-03-05T16:02:25.876Z,96947.59
2023-03-05T16:04:59.034Z,96955.20
2023-03-05T16:07:36.070Z,96957.77
2023-03-05T16:10:14.966Z,96962.89
2023-03-05T16:12:51.240Z,96968.89
2023-03-05T16:15:24.856Z,96971.44
2023-03-05T16:18:00.043Z,96974.86
2023-03-05T16:20:36.415Z,96976.63
2023-03-05T16:23:10.036Z,96982.63
2023-03-05T16:25:43.130Z,96946.48
2023-03-05T16:28:16.560Z,96988.70
2023-03-05T16:30:54.687Z,96993.93
2023-03-05T16:33:28.009Z,96993.06
2023-03-05T16:36:22.652Z,96999.92
2023-03-05T16:38:57.973Z,96999.92
2023-03-05T16:41:31.424Z,96999.07
2023-03-05T16:44:05.043Z,96994.80
2023-03-05T16:46:38.651Z,97002.55
2023-03-05T16:49:11.986Z,96999.22
2023-03-05T16:51:45.191Z,97006.06
2023-03-05T16:54:18.515Z,97007.73
2023-03-05T16:56:51.683Z,97017.95
2023-03-05T16:59:25.194Z,97019.59
2023-03-05T17:01:58.412Z,97011.78
2023-03-05T17:04:31.580Z,97016.77
2023-03-05T17:07:05.591Z,97021.02
2023-03-05T17:09:39.055Z,97016.70
2023-03-05T17:12:12.259Z,97026.06
2023-03-05T17:14:45.721Z,97030.31
2023-03-05T17:17:18.765Z,97025.98
2023-03-05T17:19:51.781Z,97032.72
2023-03-05T17:22:24.622Z,97011.89
2023-03-05T17:24:58.307Z,97032.59
2023-03-05T17:27:31.966Z,97034.20
2023-03-05T17:30:08.314Z,97035.73
2023-03-05T17:32:42.365Z,97044.14
2023-03-05T17:35:20.283Z,97046.59
2023-03-05T17:37:55.590Z,97049.13
2023-03-05T17:40:29.020Z,97039.80
2023-03-05T17:43:02.513Z,97042.33
2023-03-05T17:45:36.243Z,97050.06
2023-03-05T17:48:10.050Z,97047.52
2023-03-05T17:50:45.204Z,97050.98
2023-03-05T17:53:18.700Z,97042.52
2023-03-05T17:55:51.828Z,97051.03
2023-03-05T17:58:25.133Z,97058.77
2023-03-05T18:01:03.710Z,97043.51
2023-03-05T18:03:37.731Z,97053.84
2023-03-05T18:06:10.973Z,97049.60
2023-03-05T18:08:44.474Z,97047.05
2023-03-05T18:11:18.709Z,97049.63
2023-03-05T18:13:52.231Z,97021.18
2023-03-05T18:16:25.906Z,97052.27
2023-03-05T18:18:59.464Z,97048.82
2023-03-05T18:21:33.121Z,97055.70
2023-03-05T18:24:07.756Z,97051.48
2023-03-05T18:26:41.578Z,97052.33
2023-03-05T18:29:17.083Z,97050.70
2023-03-05T18:31:53.289Z,97047.33
2023-03-05T18:34:28.499Z,97049.05
2023-03-05T18:37:02.041Z,97055.02
2023-03-05T18:39:35.803Z,97052.50
2023-03-05T18:42:11.928Z,97051.66
2023-03-05T18:44:45.457Z,97042.21
2023-03-05T18:47:19.123Z,97053.42
2023-03-05T18:49:53.304Z,97062.01
2023-03-05T18:52:26.680Z,97059.47
2023-03-05T18:55:00.184Z,97062.03
2023-03-05T18:57:34.527Z,97067.15
2023-03-05T19:00:14.425Z,97062.07
2023-03-05T19:02:47.940Z,97066.39
2023-03-05T19:05:22.444Z,97069.85
2023-03-05T19:07:56.894Z,97073.22
2023-03-05T19:10:31.754Z,97069.83
2023-03-05T19:16:32.380Z,97073.47
2023-03-05T19:19:20.661Z,97070.54
2023-03-05T19:21:56.499Z,97078.86
2023-03-05T19:24:32.600Z,97079.48
2023-03-05T19:27:11.244Z,97076.78
2023-03-05T19:29:46.135Z,97082.59
2023-03-05T19:32:24.115Z,97084.25
2023-03-05T19:34:59.749Z,97086.73
2023-03-05T19:37:35.038Z,97076.45
2023-03-05T19:40:11.340Z,97079.83
2023-03-05T19:42:45.120Z,97081.56
2023-03-05T19:45:21.353Z,97079.91
2023-03-05T19:47:55.220Z,97078.18
2023-03-05T19:50:32.838Z,97085.05
2023-03-05T19:53:06.078Z,97073.94
2023-03-05T19:55:42.535Z,97074.84
2023-03-05T19:58:15.981Z,97079.16
2023-03-05T20:00:49.912Z,97078.38
2023-03-05T20:03:23.525Z,97079.31
2023-03-05T20:05:57.236Z,97077.69
2023-03-05T20:08:30.780Z,97081.12
2023-03-05T20:11:04.362Z,97082.85
2023-03-05T20:13:44.294Z,97082.90
2023-03-05T20:16:20.682Z,97084.56
2023-03-05T20:18:57.868Z,97081.07
2023-03-05T20:21:34.443Z,97079.31
2023-03-05T20:24:13.842Z,97075.95
2023-03-05T20:26:48.882Z,97081.95
2023-03-05T20:29:22.390Z,97078.58
2023-03-05T20:31:57.308Z,97070.96
2023-03-05T20:34:31.466Z,97071.81
2023-03-05T20:37:06.064Z,97071.81
2023-03-05T20:39:39.569Z,97072.66
2023-03-05T20:42:12.894Z,97073.55
2023-03-05T20:44:46.472Z,97068.47
2023-03-05T20:47:38.686Z,97071.86
2023-03-05T20:50:14.503Z,97072.77
2023-03-05T20:52:48.096Z,97070.20
2023-03-05T20:55:21.410Z,97075.33
2023-03-05T20:57:55.135Z,97075.30
2023-03-05T21:00:28.896Z,97081.22
2023-03-05T21:03:02.355Z,97077.73
2023-03-05T21:05:37.080Z,97076.80
2023-03-05T21:08:10.572Z,97085.39
2023-03-05T21:10:44.164Z,97080.19
2023-03-05T21:13:17.728Z,97081.07
2023-03-05T21:15:50.816Z,97085.36
2023-03-05T21:18:24.239Z,97084.50
2023-03-05T21:20:57.656Z,97080.27
2023-03-05T21:23:31.036Z,97076.88
2023-03-05T21:26:05.249Z,97081.07
2023-03-05T21:28:40.380Z,97083.61
2023-03-05T21:31:16.934Z,97088.75
2023-03-05T21:33:50.604Z,97087.04
2023-03-05T21:36:24.262Z,97098.10
2023-03-05T21:38:58.495Z,97099.01
2023-03-05T21:41:31.958Z,97093.94
2023-03-05T21:44:06.008Z,97088.91
2023-03-05T21:46:42.426Z,97091.46
2023-03-05T21:49:15.823Z,97095.75
2023-03-05T21:54:51.077Z,97090.90
2023-03-05T21:57:26.543Z,97097.45
2023-03-05T22:00:00.106Z,97098.31
2023-03-05T22:02:34.687Z,97097.41
2023-03-05T22:05:12.779Z,97098.34
2023-03-05T22:07:47.409Z,97095.80
2023-03-05T22:10:22.450Z,97099.98
2023-03-05T22:15:57.639Z,97103.61
2023-03-05T22:18:33.054Z,97104.18
2023-03-05T22:21:07.214Z,97099.81
2023-03-05T22:23:40.721Z,97100.61
2023-03-05T22:26:14.232Z,97105.78
2023-03-05T22:28:47.550Z,97116.88
2023-03-05T22:31:24.548Z,97112.58
2023-03-05T22:33:58.009Z,97111.70
2023-03-05T22:36:31.455Z,97105.73
2023-03-05T22:39:05.156Z,97102.22
2023-03-05T22:41:38.511Z,97107.30
2023-03-05T22:44:12.134Z,97109.84
2023-03-05T22:46:45.600Z,97097.84
2023-03-05T22:49:19.191Z,97099.52
2023-03-05T22:51:52.644Z,97107.25
2023-03-05T22:54:26.051Z,97102.14
2023-03-05T22:56:59.771Z,97101.25
2023-03-05T22:59:33.365Z,97078.88
2023-03-05T23:02:07.514Z,97095.31
2023-03-05T23:04:50.340Z,97088.41
2023-03-05T23:07:25.461Z,97093.45
2023-03-05T23:10:01.014Z,97098.56
2023-03-05T23:12:36.173Z,97098.51
2023-03-05T23:15:14.634Z,97097.66
2023-03-05T23:17:48.208Z,97094.19
2023-03-05T23:20:24.857Z,97093.28
2023-03-05T23:22:59.323Z,97096.72
2023-03-05T23:25:35.292Z,97101.89
2023-03-05T23:28:09.148Z,97100.08
2023-03-05T23:30:43.343Z,97095.77
2023-03-05T23:33:18.897Z,97093.20
2023-03-05T23:35:57.467Z,97086.30
2023-03-05T23:38:31.934Z,97087.16
2023-03-05T23:41:06.997Z,97096.42
2023-03-05T23:43:40.423Z,97093.78
2023-03-05T23:46:14.895Z,97089.41
2023-03-05T23:48:48.233Z,97093.70
2023-03-05T23:51:21.895Z,97095.43
2023-03-05T23:53:55.274Z,97093.78
2023-03-05T23:56:28.600Z,97094.66
2023-03-05T23:59:02.371Z,97100.58
